Rogers Flat, California
Current Conditions -  °F | °C
As of 2:35 AM on Saturday 22 Nov 2014 (Local Time) from KCIC Reporting Station
Broken Clouds Broken Clouds  
Wind Chill: 52°   Ceiling: 1200
Heat Index: 52°   Visibility: 5mi
Dew Point: 52°   Wind: 21mph
Humidity: 100%   Direction: 140°SE
Pressure: 30.03"   Gusts: NA
Location:  39.9071°N, 121.345°W
Report Text: KCIC 221035Z AUTO 14018KT 5SM BKN012 BKN017 11/11 A3003 RMK AO1 P0003
Loading
Personal Weather Stations






























Interactive Weather Map New forecast layout! Learn more

10-Day Weather Forecast

Advertisements
Track Severe Weather on mobile